sensor_id;sensor_type;location;lat;lon;timestamp;P1;durP1;ratioP1;P2;durP2;ratioP2
72132;SDS011;60008;50.826;6.896;2023-06-14T00:02:09;9.50;;;4.85;;
72132;SDS011;60008;50.826;6.896;2023-06-14T00:05:01;9.80;;;4.68;;
72132;SDS011;60008;50.826;6.896;2023-06-14T00:07:46;6.88;;;4.53;;
72132;SDS011;60008;50.826;6.896;2023-06-14T00:10:39;9.00;;;4.73;;
72132;SDS011;60008;50.826;6.896;2023-06-14T00:13:26;8.48;;;4.97;;
72132;SDS011;60008;50.826;6.896;2023-06-14T00:16:25;7.40;;;4.80;;
72132;SDS011;60008;50.826;6.896;2023-06-14T00:19:25;8.70;;;5.15;;
72132;SDS011;60008;50.826;6.896;2023-06-14T00:22:16;8.93;;;5.13;;
72132;SDS011;60008;50.826;6.896;2023-06-14T00:25:02;9.13;;;4.73;;
72132;SDS011;60008;50.826;6.896;2023-06-14T00:28:12;7.03;;;4.63;;
72132;SDS011;60008;50.826;6.896;2023-06-14T00:31:04;6.90;;;5.07;;
72132;SDS011;60008;50.826;6.896;2023-06-14T00:33:50;7.13;;;4.78;;
72132;SDS011;60008;50.826;6.896;2023-06-14T00:36:41;13.68;;;5.03;;
72132;SDS011;60008;50.826;6.896;2023-06-14T00:39:26;7.43;;;4.77;;
72132;SDS011;60008;50.826;6.896;2023-06-14T00:42:25;8.35;;;4.43;;
72132;SDS011;60008;50.826;6.896;2023-06-14T00:45:10;8.65;;;4.70;;
72132;SDS011;60008;50.826;6.896;2023-06-14T00:48:03;19.00;;;6.93;;
72132;SDS011;60008;50.826;6.896;2023-06-14T00:50:51;8.30;;;4.88;;
72132;SDS011;60008;50.826;6.896;2023-06-14T00:53:44;8.93;;;5.03;;
72132;SDS011;60008;50.826;6.896;2023-06-14T00:56:32;7.03;;;4.70;;
72132;SDS011;60008;50.826;6.896;2023-06-14T00:59:23;7.63;;;4.70;;
72132;SDS011;60008;50.826;6.896;2023-06-14T01:02:09;7.68;;;4.50;;
72132;SDS011;60008;50.826;6.896;2023-06-14T01:05:02;8.80;;;4.85;;
72132;SDS011;60008;50.826;6.896;2023-06-14T01:10:56;8.35;;;5.07;;
72132;SDS011;60008;50.826;6.896;2023-06-14T01:14:09;11.20;;;4.85;;
72132;SDS011;60008;50.826;6.896;2023-06-14T01:17:04;7.50;;;5.05;;
72132;SDS011;60008;50.826;6.896;2023-06-14T01:20:02;8.25;;;4.82;;
72132;SDS011;60008;50.826;6.896;2023-06-14T01:22:55;7.93;;;4.73;;
72132;SDS011;60008;50.826;6.896;2023-06-14T01:25:47;7.53;;;4.72;;
72132;SDS011;60008;50.826;6.896;2023-06-14T01:28:43;7.82;;;4.78;;
72132;SDS011;60008;50.826;6.896;2023-06-14T01:31:33;9.80;;;4.88;;
72132;SDS011;60008;50.826;6.896;2023-06-14T01:34:32;8.10;;;4.85;;
72132;SDS011;60008;50.826;6.896;2023-06-14T01:37:18;8.03;;;4.80;;
72132;SDS011;60008;50.826;6.896;2023-06-14T01:40:11;9.23;;;4.70;;
72132;SDS011;60008;50.826;6.896;2023-06-14T01:42:59;9.07;;;5.05;;
72132;SDS011;60008;50.826;6.896;2023-06-14T01:45:50;11.70;;;4.47;;
72132;SDS011;60008;50.826;6.896;2023-06-14T01:48:38;7.97;;;5.13;;
72132;SDS011;60008;50.826;6.896;2023-06-14T01:51:30;7.93;;;4.77;;
72132;SDS011;60008;50.826;6.896;2023-06-14T01:54:22;7.22;;;4.63;;
72132;SDS011;60008;50.826;6.896;2023-06-14T01:57:07;7.90;;;4.90;;
72132;SDS011;60008;50.826;6.896;2023-06-14T01:59:59;7.50;;;4.75;;
72132;SDS011;60008;50.826;6.896;2023-06-14T02:02:50;7.65;;;4.85;;
72132;SDS011;60008;50.826;6.896;2023-06-14T02:05:41;8.23;;;4.73;;
72132;SDS011;60008;50.826;6.896;2023-06-14T02:08:33;8.50;;;5.07;;
72132;SDS011;60008;50.826;6.896;2023-06-14T02:11:24;10.18;;;5.10;;
72132;SDS011;60008;50.826;6.896;2023-06-14T02:14:10;13.85;;;4.93;;
72132;SDS011;60008;50.826;6.896;2023-06-14T02:17:03;8.48;;;4.75;;
72132;SDS011;60008;50.826;6.896;2023-06-14T02:20:01;9.37;;;4.70;;
72132;SDS011;60008;50.826;6.896;2023-06-14T02:22:54;8.35;;;5.20;;
72132;SDS011;60008;50.826;6.896;2023-06-14T02:25:45;10.07;;;4.65;;
72132;SDS011;60008;50.826;6.896;2023-06-14T02:28:31;8.70;;;4.78;;
72132;SDS011;60008;50.826;6.896;2023-06-14T02:31:23;12.52;;;4.82;;
72132;SDS011;60008;50.826;6.896;2023-06-14T02:34:07;8.63;;;5.30;;
72132;SDS011;60008;50.826;6.896;2023-06-14T02:37:02;6.95;;;4.72;;
72132;SDS011;60008;50.826;6.896;2023-06-14T02:39:50;10.55;;;5.30;;
72132;SDS011;60008;50.826;6.896;2023-06-14T02:42:41;8.45;;;4.85;;
72132;SDS011;60008;50.826;6.896;2023-06-14T02:45:32;9.73;;;5.00;;
72132;SDS011;60008;50.826;6.896;2023-06-14T02:48:24;7.97;;;5.03;;
72132;SDS011;60008;50.826;6.896;2023-06-14T02:51:15;8.23;;;4.75;;
72132;SDS011;60008;50.826;6.896;2023-06-14T02:54:00;7.78;;;4.65;;
72132;SDS011;60008;50.826;6.896;2023-06-14T02:56:52;7.82;;;4.97;;
72132;SDS011;60008;50.826;6.896;2023-06-14T02:59:43;7.63;;;4.93;;
72132;SDS011;60008;50.826;6.896;2023-06-14T03:02:34;8.10;;;4.83;;
72132;SDS011;60008;50.826;6.896;2023-06-14T03:05:19;9.25;;;5.07;;
72132;SDS011;60008;50.826;6.896;2023-06-14T03:08:13;9.93;;;4.70;;
72132;SDS011;60008;50.826;6.896;2023-06-14T03:11:10;8.50;;;5.03;;
72132;SDS011;60008;50.826;6.896;2023-06-14T03:13:55;10.57;;;4.80;;
72132;SDS011;60008;50.826;6.896;2023-06-14T03:16:47;8.47;;;4.67;;
72132;SDS011;60008;50.826;6.896;2023-06-14T03:19:48;7.82;;;5.20;;
72132;SDS011;60008;50.826;6.896;2023-06-14T03:22:33;9.68;;;4.80;;
72132;SDS011;60008;50.826;6.896;2023-06-14T03:25:25;8.50;;;5.25;;
72132;SDS011;60008;50.826;6.896;2023-06-14T03:28:20;7.70;;;5.50;;
72132;SDS011;60008;50.826;6.896;2023-06-14T03:31:05;7.87;;;4.90;;
72132;SDS011;60008;50.826;6.896;2023-06-14T03:33:58;7.72;;;4.90;;
72132;SDS011;60008;50.826;6.896;2023-06-14T03:36:43;7.18;;;4.65;;
72132;SDS011;60008;50.826;6.896;2023-06-14T03:39:34;9.85;;;4.97;;
72132;SDS011;60008;50.826;6.896;2023-06-14T03:42:20;9.60;;;5.40;;
72132;SDS011;60008;50.826;6.896;2023-06-14T03:45:11;11.20;;;5.30;;
72132;SDS011;60008;50.826;6.896;2023-06-14T03:47:56;8.68;;;5.18;;
72132;SDS011;60008;50.826;6.896;2023-06-14T03:50:48;10.10;;;4.93;;
72132;SDS011;60008;50.826;6.896;2023-06-14T03:53:33;9.25;;;5.00;;
72132;SDS011;60008;50.826;6.896;2023-06-14T03:56:47;9.35;;;5.18;;
72132;SDS011;60008;50.826;6.896;2023-06-14T03:59:32;11.53;;;5.30;;
72132;SDS011;60008;50.826;6.896;2023-06-14T04:02:23;10.27;;;5.10;;
72132;SDS011;60008;50.826;6.896;2023-06-14T04:05:08;7.88;;;5.00;;
72132;SDS011;60008;50.826;6.896;2023-06-14T04:08:00;7.28;;;4.65;;
72132;SDS011;60008;50.826;6.896;2023-06-14T04:10:52;8.07;;;4.90;;
72132;SDS011;60008;50.826;6.896;2023-06-14T04:13:44;10.33;;;5.27;;
72132;SDS011;60008;50.826;6.896;2023-06-14T04:16:29;8.75;;;5.20;;
72132;SDS011;60008;50.826;6.896;2023-06-14T04:19:21;9.25;;;5.07;;
72132;SDS011;60008;50.826;6.896;2023-06-14T04:22:20;8.68;;;4.68;;
72132;SDS011;60008;50.826;6.896;2023-06-14T04:25:04;9.88;;;5.03;;
72132;SDS011;60008;50.826;6.896;2023-06-14T04:27:58;8.43;;;4.73;;
72132;SDS011;60008;50.826;6.896;2023-06-14T04:30:43;12.68;;;4.70;;
72132;SDS011;60008;50.826;6.896;2023-06-14T04:33:36;7.57;;;4.53;;
72132;SDS011;60008;50.826;6.896;2023-06-14T04:36:35;8.07;;;4.55;;
72132;SDS011;60008;50.826;6.896;2023-06-14T04:39:22;7.57;;;4.50;;
72132;SDS011;60008;50.826;6.896;2023-06-14T04:42:13;8.30;;;4.00;;
72132;SDS011;60008;50.826;6.896;2023-06-14T04:44:59;11.10;;;4.38;;
72132;SDS011;60008;50.826;6.896;2023-06-14T04:47:52;10.32;;;3.92;;
72132;SDS011;60008;50.826;6.896;2023-06-14T04:50:48;12.38;;;3.80;;
72132;SDS011;60008;50.826;6.896;2023-06-14T04:53:44;8.65;;;4.05;;
72132;SDS011;60008;50.826;6.896;2023-06-14T04:56:29;6.53;;;3.70;;
72132;SDS011;60008;50.826;6.896;2023-06-14T04:59:21;6.60;;;3.78;;
72132;SDS011;60008;50.826;6.896;2023-06-14T05:02:10;7.65;;;3.92;;
72132;SDS011;60008;50.826;6.896;2023-06-14T05:05:03;7.10;;;3.50;;
72132;SDS011;60008;50.826;6.896;2023-06-14T05:07:58;7.18;;;3.80;;
72132;SDS011;60008;50.826;6.896;2023-06-14T05:10:43;7.17;;;3.60;;
72132;SDS011;60008;50.826;6.896;2023-06-14T05:13:35;7.88;;;3.42;;
72132;SDS011;60008;50.826;6.896;2023-06-14T05:16:26;8.88;;;3.63;;
72132;SDS011;60008;50.826;6.896;2023-06-14T05:19:27;5.75;;;3.35;;
72132;SDS011;60008;50.826;6.896;2023-06-14T05:22:12;10.57;;;3.55;;
72132;SDS011;60008;50.826;6.896;2023-06-14T05:25:03;6.20;;;3.30;;
72132;SDS011;60008;50.826;6.896;2023-06-14T05:27:49;6.65;;;3.22;;
72132;SDS011;60008;50.826;6.896;2023-06-14T05:30:41;7.07;;;3.22;;
72132;SDS011;60008;50.826;6.896;2023-06-14T05:33:25;6.32;;;3.15;;
72132;SDS011;60008;50.826;6.896;2023-06-14T05:36:17;5.18;;;3.30;;
72132;SDS011;60008;50.826;6.896;2023-06-14T05:39:02;8.03;;;3.20;;
72132;SDS011;60008;50.826;6.896;2023-06-14T05:41:55;4.68;;;2.80;;
72132;SDS011;60008;50.826;6.896;2023-06-14T05:44:40;7.72;;;3.47;;
72132;SDS011;60008;50.826;6.896;2023-06-14T05:47:31;6.15;;;3.20;;
72132;SDS011;60008;50.826;6.896;2023-06-14T05:50:17;9.65;;;3.58;;
72132;SDS011;60008;50.826;6.896;2023-06-14T05:53:09;6.23;;;3.50;;
72132;SDS011;60008;50.826;6.896;2023-06-14T05:55:54;4.88;;;3.00;;
72132;SDS011;60008;50.826;6.896;2023-06-14T05:58:45;6.55;;;3.10;;
72132;SDS011;60008;50.826;6.896;2023-06-14T06:01:37;8.25;;;3.25;;
72132;SDS011;60008;50.826;6.896;2023-06-14T06:04:25;6.32;;;2.90;;
72132;SDS011;60008;50.826;6.896;2023-06-14T06:07:17;7.63;;;3.10;;
72132;SDS011;60008;50.826;6.896;2023-06-14T06:10:02;6.00;;;3.10;;
72132;SDS011;60008;50.826;6.896;2023-06-14T06:12:55;8.43;;;3.10;;
72132;SDS011;60008;50.826;6.896;2023-06-14T06:15:39;7.93;;;3.10;;
72132;SDS011;60008;50.826;6.896;2023-06-14T06:18:31;10.40;;;3.60;;
72132;SDS011;60008;50.826;6.896;2023-06-14T06:21:23;7.53;;;3.00;;
72132;SDS011;60008;50.826;6.896;2023-06-14T06:24:15;7.63;;;3.42;;
72132;SDS011;60008;50.826;6.896;2023-06-14T06:27:06;7.15;;;2.80;;
72132;SDS011;60008;50.826;6.896;2023-06-14T06:29:58;7.70;;;3.10;;
72132;SDS011;60008;50.826;6.896;2023-06-14T06:32:49;5.80;;;3.00;;
72132;SDS011;60008;50.826;6.896;2023-06-14T06:35:36;9.10;;;3.60;;
72132;SDS011;60008;50.826;6.896;2023-06-14T06:38:28;5.78;;;3.08;;
72132;SDS011;60008;50.826;6.896;2023-06-14T06:41:12;5.70;;;3.15;;
72132;SDS011;60008;50.826;6.896;2023-06-14T06:44:04;8.98;;;4.15;;
72132;SDS011;60008;50.826;6.896;2023-06-14T06:46:57;7.18;;;3.05;;
72132;SDS011;60008;50.826;6.896;2023-06-14T06:49:48;6.10;;;2.90;;
72132;SDS011;60008;50.826;6.896;2023-06-14T06:52:41;5.18;;;2.80;;
72132;SDS011;60008;50.826;6.896;2023-06-14T06:55:32;7.05;;;3.30;;
72132;SDS011;60008;50.826;6.896;2023-06-14T06:58:24;8.82;;;2.80;;
72132;SDS011;60008;50.826;6.896;2023-06-14T07:01:09;8.48;;;3.05;;
72132;SDS011;60008;50.826;6.896;2023-06-14T07:04:00;5.43;;;3.00;;
72132;SDS011;60008;50.826;6.896;2023-06-14T07:06:46;8.23;;;2.97;;
72132;SDS011;60008;50.826;6.896;2023-06-14T07:09:39;8.98;;;2.72;;
72132;SDS011;60008;50.826;6.896;2023-06-14T07:12:26;9.50;;;2.60;;
72132;SDS011;60008;50.826;6.896;2023-06-14T07:15:17;6.50;;;3.72;;
72132;SDS011;60008;50.826;6.896;2023-06-14T07:18:16;10.50;;;2.90;;
72132;SDS011;60008;50.826;6.896;2023-06-14T07:21:01;4.10;;;2.50;;
72132;SDS011;60008;50.826;6.896;2023-06-14T07:23:53;5.05;;;2.90;;
72132;SDS011;60008;50.826;6.896;2023-06-14T07:26:39;6.57;;;2.70;;
72132;SDS011;60008;50.826;6.896;2023-06-14T07:29:31;4.28;;;2.50;;
72132;SDS011;60008;50.826;6.896;2023-06-14T07:32:16;5.63;;;2.70;;
72132;SDS011;60008;50.826;6.896;2023-06-14T07:35:08;11.10;;;2.53;;
72132;SDS011;60008;50.826;6.896;2023-06-14T07:38:00;5.10;;;2.53;;
72132;SDS011;60008;50.826;6.896;2023-06-14T07:40:45;7.15;;;3.08;;
72132;SDS011;60008;50.826;6.896;2023-06-14T07:43:37;7.07;;;3.35;;
72132;SDS011;60008;50.826;6.896;2023-06-14T07:46:22;9.73;;;3.30;;
72132;SDS011;60008;50.826;6.896;2023-06-14T07:49:13;6.53;;;3.35;;
72132;SDS011;60008;50.826;6.896;2023-06-14T07:51:59;5.22;;;3.40;;
72132;SDS011;60008;50.826;6.896;2023-06-14T07:54:50;5.30;;;3.20;;
72132;SDS011;60008;50.826;6.896;2023-06-14T07:57:43;7.72;;;3.60;;
72132;SDS011;60008;50.826;6.896;2023-06-14T08:00:29;15.23;;;3.37;;
72132;SDS011;60008;50.826;6.896;2023-06-14T08:03:21;8.43;;;3.10;;
72132;SDS011;60008;50.826;6.896;2023-06-14T08:06:14;5.93;;;3.17;;
72132;SDS011;60008;50.826;6.896;2023-06-14T08:08:59;7.50;;;3.30;;
72132;SDS011;60008;50.826;6.896;2023-06-14T08:11:51;5.80;;;3.10;;
72132;SDS011;60008;50.826;6.896;2023-06-14T08:14:43;5.60;;;2.93;;
72132;SDS011;60008;50.826;6.896;2023-06-14T08:17:28;7.07;;;3.70;;
72132;SDS011;60008;50.826;6.896;2023-06-14T08:20:19;3.53;;;2.70;;
72132;SDS011;60008;50.826;6.896;2023-06-14T08:23:11;3.88;;;2.70;;
72132;SDS011;60008;50.826;6.896;2023-06-14T08:26:02;5.75;;;2.80;;
72132;SDS011;60008;50.826;6.896;2023-06-14T08:28:48;5.10;;;2.95;;
72132;SDS011;60008;50.826;6.896;2023-06-14T08:31:39;4.13;;;2.60;;
72132;SDS011;60008;50.826;6.896;2023-06-14T08:34:32;4.23;;;2.80;;
72132;SDS011;60008;50.826;6.896;2023-06-14T08:37:17;3.75;;;3.03;;
72132;SDS011;60008;50.826;6.896;2023-06-14T08:40:19;13.63;;;2.90;;
72132;SDS011;60008;50.826;6.896;2023-06-14T08:43:13;4.03;;;2.85;;
72132;SDS011;60008;50.826;6.896;2023-06-14T08:45:58;6.70;;;3.00;;
72132;SDS011;60008;50.826;6.896;2023-06-14T08:48:55;7.53;;;3.40;;
72132;SDS011;60008;50.826;6.896;2023-06-14T08:51:43;3.80;;;2.40;;
72132;SDS011;60008;50.826;6.896;2023-06-14T08:54:34;4.95;;;2.20;;
72132;SDS011;60008;50.826;6.896;2023-06-14T08:57:28;3.60;;;3.00;;
72132;SDS011;60008;50.826;6.896;2023-06-14T09:00:22;4.90;;;2.75;;
72132;SDS011;60008;50.826;6.896;2023-06-14T09:03:07;5.05;;;2.55;;
72132;SDS011;60008;50.826;6.896;2023-06-14T09:06:04;4.10;;;2.83;;
72132;SDS011;60008;50.826;6.896;2023-06-14T09:08:55;3.93;;;2.73;;
72132;SDS011;60008;50.826;6.896;2023-06-14T09:11:50;5.05;;;2.53;;
72132;SDS011;60008;50.826;6.896;2023-06-14T09:14:42;6.40;;;3.85;;
72132;SDS011;60008;50.826;6.896;2023-06-14T09:17:27;4.57;;;3.20;;
72132;SDS011;60008;50.826;6.896;2023-06-14T09:20:24;4.55;;;2.90;;
72132;SDS011;60008;50.826;6.896;2023-06-14T09:23:09;2.83;;;2.17;;
72132;SDS011;60008;50.826;6.896;2023-06-14T09:26:00;8.13;;;2.77;;
72132;SDS011;60008;50.826;6.896;2023-06-14T09:28:51;6.90;;;2.53;;
72132;SDS011;60008;50.826;6.896;2023-06-14T09:31:43;3.75;;;2.75;;
72132;SDS011;60008;50.826;6.896;2023-06-14T09:34:36;7.40;;;2.70;;
72132;SDS011;60008;50.826;6.896;2023-06-14T09:37:31;6.07;;;3.78;;
72132;SDS011;60008;50.826;6.896;2023-06-14T09:40:23;3.87;;;2.37;;
72132;SDS011;60008;50.826;6.896;2023-06-14T09:43:14;3.63;;;2.70;;
72132;SDS011;60008;50.826;6.896;2023-06-14T09:46:07;4.53;;;2.30;;
72132;SDS011;60008;50.826;6.896;2023-06-14T09:48:53;6.50;;;2.88;;
72132;SDS011;60008;50.826;6.896;2023-06-14T09:51:45;3.03;;;2.53;;
72132;SDS011;60008;50.826;6.896;2023-06-14T09:54:42;4.63;;;2.60;;
72132;SDS011;60008;50.826;6.896;2023-06-14T09:57:30;3.23;;;2.57;;
72132;SDS011;60008;50.826;6.896;2023-06-14T10:00:24;4.17;;;2.40;;
72132;SDS011;60008;50.826;6.896;2023-06-14T10:03:12;3.13;;;2.53;;
72132;SDS011;60008;50.826;6.896;2023-06-14T10:06:05;4.10;;;2.75;;
72132;SDS011;60008;50.826;6.896;2023-06-14T10:08:53;6.20;;;2.13;;
72132;SDS011;60008;50.826;6.896;2023-06-14T10:11:49;3.97;;;3.00;;
72132;SDS011;60008;50.826;6.896;2023-06-14T10:14:42;3.27;;;2.13;;
72132;SDS011;60008;50.826;6.896;2023-06-14T10:17:30;3.07;;;2.40;;
72132;SDS011;60008;50.826;6.896;2023-06-14T10:20:35;5.68;;;2.60;;
72132;SDS011;60008;50.826;6.896;2023-06-14T10:23:33;3.33;;;2.70;;
72132;SDS011;60008;50.826;6.896;2023-06-14T10:26:30;2.63;;;1.63;;
72132;SDS011;60008;50.826;6.896;2023-06-14T10:29:22;3.28;;;2.55;;
72132;SDS011;60008;50.826;6.896;2023-06-14T10:32:07;7.50;;;2.50;;
72132;SDS011;60008;50.826;6.896;2023-06-14T10:35:08;4.18;;;2.40;;
72132;SDS011;60008;50.826;6.896;2023-06-14T10:37:53;3.38;;;2.33;;
72132;SDS011;60008;50.826;6.896;2023-06-14T10:40:45;3.00;;;2.30;;
72132;SDS011;60008;50.826;6.896;2023-06-14T10:43:38;4.15;;;2.40;;
72132;SDS011;60008;50.826;6.896;2023-06-14T10:46:29;4.23;;;2.37;;
72132;SDS011;60008;50.826;6.896;2023-06-14T10:49:18;4.80;;;2.20;;
72132;SDS011;60008;50.826;6.896;2023-06-14T10:52:12;6.93;;;2.58;;
72132;SDS011;60008;50.826;6.896;2023-06-14T10:58:05;9.85;;;3.22;;
72132;SDS011;60008;50.826;6.896;2023-06-14T11:00:57;4.82;;;3.00;;
72132;SDS011;60008;50.826;6.896;2023-06-14T11:03:50;3.50;;;2.67;;
72132;SDS011;60008;50.826;6.896;2023-06-14T11:06:46;4.75;;;2.53;;
72132;SDS011;60008;50.826;6.896;2023-06-14T11:12:53;11.38;;;3.45;;
72132;SDS011;60008;50.826;6.896;2023-06-14T11:15:47;4.53;;;3.05;;
72132;SDS011;60008;50.826;6.896;2023-06-14T11:18:39;6.37;;;2.90;;
72132;SDS011;60008;50.826;6.896;2023-06-14T11:21:39;4.68;;;2.83;;
72132;SDS011;60008;50.826;6.896;2023-06-14T11:24:32;5.63;;;2.50;;
72132;SDS011;60008;50.826;6.896;2023-06-14T11:27:17;5.70;;;2.40;;
72132;SDS011;60008;50.826;6.896;2023-06-14T11:30:09;5.70;;;2.60;;
72132;SDS011;60008;50.826;6.896;2023-06-14T11:32:55;7.93;;;3.17;;
72132;SDS011;60008;50.826;6.896;2023-06-14T11:35:46;6.47;;;2.15;;
72132;SDS011;60008;50.826;6.896;2023-06-14T11:38:34;7.82;;;2.45;;
72132;SDS011;60008;50.826;6.896;2023-06-14T11:41:32;6.35;;;2.47;;
72132;SDS011;60008;50.826;6.896;2023-06-14T11:44:36;3.85;;;2.53;;
72132;SDS011;60008;50.826;6.896;2023-06-14T11:47:31;4.07;;;1.80;;
72132;SDS011;60008;50.826;6.896;2023-06-14T11:50:17;4.60;;;2.47;;
72132;SDS011;60008;50.826;6.896;2023-06-14T11:53:09;4.45;;;1.90;;
72132;SDS011;60008;50.826;6.896;2023-06-14T11:55:55;2.40;;;1.80;;
72132;SDS011;60008;50.826;6.896;2023-06-14T11:58:47;3.10;;;1.85;;
72132;SDS011;60008;50.826;6.896;2023-06-14T12:01:32;3.55;;;1.98;;
72132;SDS011;60008;50.826;6.896;2023-06-14T12:04:27;4.03;;;1.47;;
72132;SDS011;60008;50.826;6.896;2023-06-14T12:07:19;4.00;;;1.90;;
72132;SDS011;60008;50.826;6.896;2023-06-14T12:10:07;2.42;;;1.70;;
72132;SDS011;60008;50.826;6.896;2023-06-14T12:13:00;3.97;;;1.67;;
72132;SDS011;60008;50.826;6.896;2023-06-14T12:15:45;4.80;;;1.67;;
72132;SDS011;60008;50.826;6.896;2023-06-14T12:18:46;2.37;;;1.47;;
72132;SDS011;60008;50.826;6.896;2023-06-14T12:21:37;7.30;;;1.50;;
72132;SDS011;60008;50.826;6.896;2023-06-14T12:24:31;2.70;;;1.85;;
72132;SDS011;60008;50.826;6.896;2023-06-14T12:27:16;3.42;;;1.55;;
72132;SDS011;60008;50.826;6.896;2023-06-14T12:30:10;8.65;;;2.05;;
72132;SDS011;60008;50.826;6.896;2023-06-14T12:32:55;4.37;;;1.57;;
72132;SDS011;60008;50.826;6.896;2023-06-14T12:35:47;2.53;;;1.60;;
72132;SDS011;60008;50.826;6.896;2023-06-14T12:38:38;2.97;;;1.88;;
72132;SDS011;60008;50.826;6.896;2023-06-14T12:41:23;5.38;;;2.08;;
72132;SDS011;60008;50.826;6.896;2023-06-14T12:44:16;3.63;;;1.90;;
72132;SDS011;60008;50.826;6.896;2023-06-14T12:47:01;3.27;;;1.70;;
72132;SDS011;60008;50.826;6.896;2023-06-14T12:49:53;5.13;;;1.70;;
72132;SDS011;60008;50.826;6.896;2023-06-14T12:52:45;2.75;;;1.70;;
72132;SDS011;60008;50.826;6.896;2023-06-14T12:55:30;2.88;;;1.88;;
72132;SDS011;60008;50.826;6.896;2023-06-14T12:58:21;3.35;;;1.92;;
72132;SDS011;60008;50.826;6.896;2023-06-14T13:01:08;3.03;;;1.33;;
72132;SDS011;60008;50.826;6.896;2023-06-14T13:03:59;2.90;;;1.40;;
72132;SDS011;60008;50.826;6.896;2023-06-14T13:06:45;3.80;;;2.58;;
72132;SDS011;60008;50.826;6.896;2023-06-14T13:09:37;2.28;;;1.30;;
72132;SDS011;60008;50.826;6.896;2023-06-14T13:12:22;4.22;;;2.28;;
72132;SDS011;60008;50.826;6.896;2023-06-14T13:15:13;2.67;;;1.50;;
72132;SDS011;60008;50.826;6.896;2023-06-14T13:18:11;2.10;;;1.20;;
72132;SDS011;60008;50.826;6.896;2023-06-14T13:21:10;2.58;;;1.45;;
72132;SDS011;60008;50.826;6.896;2023-06-14T13:24:01;5.00;;;1.40;;
72132;SDS011;60008;50.826;6.896;2023-06-14T13:26:46;2.13;;;1.27;;
72132;SDS011;60008;50.826;6.896;2023-06-14T13:29:37;3.50;;;1.40;;
72132;SDS011;60008;50.826;6.896;2023-06-14T13:32:22;3.35;;;1.50;;
72132;SDS011;60008;50.826;6.896;2023-06-14T13:35:14;3.83;;;1.35;;
72132;SDS011;60008;50.826;6.896;2023-06-14T13:38:06;4.90;;;1.30;;
72132;SDS011;60008;50.826;6.896;2023-06-14T13:40:51;4.25;;;1.30;;
72132;SDS011;60008;50.826;6.896;2023-06-14T13:43:43;2.40;;;1.30;;
72132;SDS011;60008;50.826;6.896;2023-06-14T13:46:34;7.70;;;1.30;;
72132;SDS011;60008;50.826;6.896;2023-06-14T13:49:26;3.70;;;1.48;;
72132;SDS011;60008;50.826;6.896;2023-06-14T13:52:11;2.20;;;1.13;;
72132;SDS011;60008;50.826;6.896;2023-06-14T13:55:05;5.00;;;1.50;;
72132;SDS011;60008;50.826;6.896;2023-06-14T13:57:50;2.30;;;1.23;;
72132;SDS011;60008;50.826;6.896;2023-06-14T14:00:42;2.10;;;1.30;;
72132;SDS011;60008;50.826;6.896;2023-06-14T14:03:34;2.97;;;1.38;;
72132;SDS011;60008;50.826;6.896;2023-06-14T14:06:26;2.92;;;1.42;;
72132;SDS011;60008;50.826;6.896;2023-06-14T14:09:11;6.60;;;1.70;;
72132;SDS011;60008;50.826;6.896;2023-06-14T14:12:04;5.03;;;1.40;;
72132;SDS011;60008;50.826;6.896;2023-06-14T14:14:57;4.72;;;1.75;;
72132;SDS011;60008;50.826;6.896;2023-06-14T14:17:42;3.58;;;1.50;;
72132;SDS011;60008;50.826;6.896;2023-06-14T14:20:40;5.93;;;2.10;;
72132;SDS011;60008;50.826;6.896;2023-06-14T14:23:32;3.08;;;2.05;;
72132;SDS011;60008;50.826;6.896;2023-06-14T14:26:17;4.30;;;2.00;;
72132;SDS011;60008;50.826;6.896;2023-06-14T14:29:09;3.97;;;2.08;;
72132;SDS011;60008;50.826;6.896;2023-06-14T14:32:01;4.40;;;1.73;;
72132;SDS011;60008;50.826;6.896;2023-06-14T14:34:53;3.65;;;2.20;;
72132;SDS011;60008;50.826;6.896;2023-06-14T14:37:38;4.40;;;2.10;;
72132;SDS011;60008;50.826;6.896;2023-06-14T14:40:30;3.53;;;1.93;;
72132;SDS011;60008;50.826;6.896;2023-06-14T14:43:22;8.32;;;2.05;;
72132;SDS011;60008;50.826;6.896;2023-06-14T14:46:06;3.40;;;2.10;;
72132;SDS011;60008;50.826;6.896;2023-06-14T14:48:58;3.95;;;1.73;;
72132;SDS011;60008;50.826;6.896;2023-06-14T14:51:44;7.13;;;1.98;;
72132;SDS011;60008;50.826;6.896;2023-06-14T14:54:35;3.83;;;1.63;;
72132;SDS011;60008;50.826;6.896;2023-06-14T14:57:21;3.22;;;1.52;;
72132;SDS011;60008;50.826;6.896;2023-06-14T15:00:13;3.28;;;2.10;;
72132;SDS011;60008;50.826;6.896;2023-06-14T15:02:59;3.03;;;1.75;;
72132;SDS011;60008;50.826;6.896;2023-06-14T15:05:51;3.00;;;1.90;;
72132;SDS011;60008;50.826;6.896;2023-06-14T15:08:36;5.10;;;1.90;;
72132;SDS011;60008;50.826;6.896;2023-06-14T15:11:28;2.80;;;1.55;;
72132;SDS011;60008;50.826;6.896;2023-06-14T15:14:13;7.20;;;1.92;;
72132;SDS011;60008;50.826;6.896;2023-06-14T15:17:06;3.10;;;1.92;;
72132;SDS011;60008;50.826;6.896;2023-06-14T15:19:52;3.17;;;1.73;;
72132;SDS011;60008;50.826;6.896;2023-06-14T15:22:51;3.00;;;1.97;;
72132;SDS011;60008;50.826;6.896;2023-06-14T15:25:37;2.60;;;1.60;;
72132;SDS011;60008;50.826;6.896;2023-06-14T15:28:28;4.85;;;2.58;;
72132;SDS011;60008;50.826;6.896;2023-06-14T15:31:13;2.95;;;2.03;;
72132;SDS011;60008;50.826;6.896;2023-06-14T15:34:05;4.43;;;2.50;;
72132;SDS011;60008;50.826;6.896;2023-06-14T15:36:50;5.87;;;4.13;;
72132;SDS011;60008;50.826;6.896;2023-06-14T15:39:42;3.50;;;2.30;;
72132;SDS011;60008;50.826;6.896;2023-06-14T15:42:27;2.80;;;2.00;;
72132;SDS011;60008;50.826;6.896;2023-06-14T15:45:19;2.88;;;1.70;;
72132;SDS011;60008;50.826;6.896;2023-06-14T15:48:04;4.45;;;2.00;;
72132;SDS011;60008;50.826;6.896;2023-06-14T15:50:56;3.30;;;1.90;;
72132;SDS011;60008;50.826;6.896;2023-06-14T15:53:41;3.22;;;1.55;;
72132;SDS011;60008;50.826;6.896;2023-06-14T15:56:32;3.53;;;1.90;;
72132;SDS011;60008;50.826;6.896;2023-06-14T15:59:24;2.97;;;1.55;;
72132;SDS011;60008;50.826;6.896;2023-06-14T16:02:11;5.50;;;1.80;;
72132;SDS011;60008;50.826;6.896;2023-06-14T16:05:03;4.03;;;1.77;;
72132;SDS011;60008;50.826;6.896;2023-06-14T16:07:49;5.53;;;1.58;;
72132;SDS011;60008;50.826;6.896;2023-06-14T16:10:40;3.53;;;1.85;;
72132;SDS011;60008;50.826;6.896;2023-06-14T16:13:25;2.90;;;1.60;;
72132;SDS011;60008;50.826;6.896;2023-06-14T16:16:17;6.75;;;2.03;;
72132;SDS011;60008;50.826;6.896;2023-06-14T16:19:09;3.17;;;2.00;;
72132;SDS011;60008;50.826;6.896;2023-06-14T16:22:01;3.38;;;1.83;;
72132;SDS011;60008;50.826;6.896;2023-06-14T16:24:53;7.38;;;2.10;;
72132;SDS011;60008;50.826;6.896;2023-06-14T16:27:45;2.70;;;1.65;;
72132;SDS011;60008;50.826;6.896;2023-06-14T16:30:36;7.30;;;2.22;;
72132;SDS011;60008;50.826;6.896;2023-06-14T16:33:21;4.13;;;2.10;;
72132;SDS011;60008;50.826;6.896;2023-06-14T16:36:12;4.05;;;2.05;;
72132;SDS011;60008;50.826;6.896;2023-06-14T16:38:57;4.13;;;2.35;;
72132;SDS011;60008;50.826;6.896;2023-06-14T16:41:50;3.17;;;2.05;;
72132;SDS011;60008;50.826;6.896;2023-06-14T16:44:35;3.15;;;1.90;;
72132;SDS011;60008;50.826;6.896;2023-06-14T16:47:26;3.03;;;1.77;;
72132;SDS011;60008;50.826;6.896;2023-06-14T16:50:18;5.10;;;2.00;;
72132;SDS011;60008;50.826;6.896;2023-06-14T16:53:10;2.90;;;2.10;;
72132;SDS011;60008;50.826;6.896;2023-06-14T16:56:02;3.65;;;2.30;;
72132;SDS011;60008;50.826;6.896;2023-06-14T16:58:47;4.72;;;2.10;;
72132;SDS011;60008;50.826;6.896;2023-06-14T17:01:39;5.40;;;2.00;;
72132;SDS011;60008;50.826;6.896;2023-06-14T17:04:23;4.53;;;2.20;;
72132;SDS011;60008;50.826;6.896;2023-06-14T17:07:15;3.38;;;2.08;;
72132;SDS011;60008;50.826;6.896;2023-06-14T17:10:00;5.85;;;2.28;;
72132;SDS011;60008;50.826;6.896;2023-06-14T17:12:52;3.78;;;2.20;;
72132;SDS011;60008;50.826;6.896;2023-06-14T17:15:44;3.37;;;2.00;;